Historyczne dane pomiarowe

Dodano dane terminowe – wersja testowa.

Dane z okresu 1951-2019

Wersja bazy: 1.34 [2019-03-16, lista zmian], aktualizacja planowana na 2019-04-15

Dane meteo z obszaru Polski uzyskane na podstawie danych udostępnionych przez Instytut Meteorologii i Gospodarki Wodnej – Państwowy Instytut Badawczy.

 

Wybierz Datę:    

       

TemperaturaWilgotnośćWiatrCiśnienieOpadyŚniegCzas trwania zjawisk
 Stacja t tx tn tng RH VA  wxwx mslp ppp RRR   cm mm wxwxwxwxwxwxwx
1997-09-11 12.3 18.2 9.2 7.3 76.8- 3.0 1.3---- 0.0------------
1997-09-12 16.8 25.0 10.8 6.7 69.5- 1.0 4.7---- 0.0------------
1997-09-13 18.2 22.6 15.4 13.2 72.3- 5.3 2.3---- 5.2------------
1997-09-14 12.1 17.0 9.8 6.8 80.5- 2.7 1.0---- 0.0------------
1997-09-15 9.3 18.2 3.4 2.9 81.3- 1.0 1.0---- 0.0------------
1997-09-16 10.5 21.2 3.0 1.9 80.8- 0.7 1.0---- 0.0------------
1997-09-17 14.8 22.0 10.0 4.8 68.3- 0.0 3.0---- 0.0------------
1997-09-18 15.2 22.9 10.6 6.9 79.0- 1.7 1.0---- 0.0------------
1997-09-19 13.7 21.0 10.5 8.2 85.3- 6.7 1.7---- 5.4------------
1997-09-20 7.6 13.0 5.0 3.4 83.8- 2.0 1.0---- 0.0------------
1997-09-21 6.6 16.2 -0.9 -0.5 80.8- 0.0 0.7---- 0.0------------
1997-09-22 7.6 18.1 0.0 -0.2 84.0- 0.0 1.0---- 0.0------------
1997-09-23 9.8 19.9 2.0 0.5 79.5- 0.7 1.0---- 0.0------------
1997-09-24 11.2 16.1 9.2 5.5 78.3- 7.0 2.0---- 0.0------------
1997-09-25 11.0 15.5 7.2 3.5 85.5- 7.7 1.7---- 0.0------------
1997-09-26 12.6 16.5 11.0 7.4 96.5- 7.0 1.3---- 0.0------------
1997-09-27 10.9 15.5 8.6 7.3 81.3- 6.7 1.3---- 0.0------------
1997-09-28 10.3 15.1 7.0 4.4 82.3- 6.3 1.0---- 0.0------------
1997-09-29 9.2 18.0 1.7 -0.4 91.3- 2.7 1.7---- 0.2------------
1997-09-30 11.0 12.0 9.7 5.3 93.8- 8.0 1.7---- 3.9------------
1997-10-01 10.4 15.0 8.7 5.4 83.8- 4.0 1.7---- 14.5------------
1997-10-02 9.4 14.5 2.8 4.4 85.5- 6.7 3.3---- 5.3------------
1997-10-03 8.4 11.0 7.4 5.1 86.8- 8.0 2.3---- 2.1------------
1997-10-04 9.8 12.1 7.4 4.8 77.8- 6.3 2.3---- 0.0------------
1997-10-05 13.8 18.2 10.9 7.3 73.0- 4.3 4.0---- 0.1------------
1997-10-06 14.2 22.2 10.8 7.4 89.3- 2.7 0.7---- 0.0------------
1997-10-07 16.6 22.5 11.4 6.8 68.0- 0.3 3.3---- 0.0------------
1997-10-08 15.8 21.4 13.2 9.8 80.0- 2.7 2.0---- 0.0------------
1997-10-09 17.8 22.0 13.2 9.4 72.5- 3.3 2.7---- 5.4------------
1997-10-10 18.6 19.6 17.6 13.1 62.3- 6.7 5.7---- 3.5------------
142.2 ms

 

Źródłem pochodzenia danych jest Instytut Meteorologii i Gospodarki Wodnej – Państwowy Instytut Badawczy. Dane Instytutu Meteorologii i Gospodarki Wodnej – Państwowego Instytutu Badawczego zostały przetworzone.

Dane źródłowe można odnaleźć na stronie https://dane.imgw.pl